Time;durP1;ratioP1;P1;durP2;ratioP2;P2;SDS_P1;SDS_P2;PMS_P1;PMS_P2;Temp;Humidity;BMP_temperature;BMP_pressure;BME280_temperature;BME280_humidity;BME280_pressure;Samples;Min_cycle;Max_cycle;Signal;HPM_P1;HPM_P2
2021/05/04 00:00:55;;;;;;;4.92;2.24;;;;;;;;;;362547;147;866581;-60
2021/05/04 00:01:57;;;;;;;3.76;2.05;;;;;;;;;;360780;147;858933;-60
2021/05/04 00:02:59;;;;;;;3.71;2.25;;;;;;;;;;363151;148;864697;-60
2021/05/04 00:04:00;;;;;;;3.70;2.44;;;;;;;;;;363720;147;857260;-60
2021/05/04 00:05:02;;;;;;;3.97;2.23;;;;;;;;;;363945;148;858394;-61
2021/05/04 00:06:04;;;;;;;3.57;2.35;;;;;;;;;;359074;148;858240;-61
2021/05/04 00:07:06;;;;;;;4.41;2.08;;;;;;;;;;357370;150;858476;-61
2021/05/04 00:08:08;;;;;;;3.99;2.03;;;;;;;;;;361289;148;857797;-61
2021/05/04 00:09:09;;;;;;;4.47;1.99;;;;;;;;;;363932;147;857675;-61
2021/05/04 00:10:11;;;;;;;4.15;1.91;;;;;;;;;;362329;147;857837;-60
2021/05/04 00:11:13;;;;;;;3.46;2.34;;;;;;;;;;363950;147;858214;-60
2021/05/04 00:34:11;;;;;;;2.66;1.73;;;;;;;5.62;55.49;99616.02;373935;142;882398;-60
2021/05/04 00:35:13;;;;;;;2.65;1.67;;;;;;;5.54;55.32;99621.09;366182;147;857219;-60
2021/05/04 00:36:16;;;;;;;3.46;1.76;;;;;;;5.55;55.48;99622.80;366067;147;859950;-60
2021/05/04 00:37:17;;;;;;;4.17;2.02;;;;;;;5.56;55.47;99621.95;363681;147;859071;-61
2021/05/04 00:38:19;;;;;;;3.41;1.99;;;;;;;5.58;55.56;99631.38;365236;144;865724;-61
2021/05/04 00:39:25;;;;;;;4.98;1.92;;;;;;;5.56;55.54;99626.25;361064;149;865575;-60
2021/05/04 00:40:26;;;;;;;2.64;1.99;;;;;;;5.54;55.53;99625.38;360583;149;864788;-61
2021/05/04 00:41:28;;;;;;;4.87;1.83;;;;;;;5.57;55.36;99622.84;361528;147;857359;-60
2021/05/04 00:42:30;;;;;;;4.81;2.37;;;;;;;5.59;55.39;99631.41;365641;146;858873;-61
2021/05/04 00:43:32;;;;;;;3.25;2.23;;;;;;;5.58;55.50;99621.27;366219;146;866494;-60
2021/05/04 00:44:34;;;;;;;3.77;2.51;;;;;;;;;;359600;150;857693;-60
2021/05/04 00:45:35;;;;;;;3.66;2.46;;;;;;;;;;359622;149;859379;-59
2021/05/04 00:46:37;;;;;;;3.56;2.46;;;;;;;;;;362762;147;864798;-60
2021/05/04 00:47:39;;;;;;;4.49;2.75;;;;;;;;;;366277;146;864863;-60
2021/05/04 00:48:40;;;;;;;4.36;2.31;;;;;;;;;;366255;146;858435;-59
2021/05/04 00:49:42;;;;;;;6.14;3.07;;;;;;;;;;366232;146;864827;-62
2021/05/04 00:50:45;;;;;;;5.04;2.62;;;;;;;;;;364671;147;865723;-60
2021/05/04 00:51:48;;;;;;;4.46;2.66;;;;;;;;;;363636;146;857295;-59
2021/05/04 00:52:50;;;;;;;4.60;2.76;;;;;;;;;;363042;146;863044;-60
2021/05/04 00:53:51;;;;;;;3.78;2.88;;;;;;;;;;363249;147;858990;-59
2021/05/04 00:54:53;;;;;;;4.94;3.03;;;;;;;;;;362672;148;857419;-59
2021/05/04 00:55:54;;;;;;;4.48;2.50;;;;;;;;;;362706;148;859669;-59
2021/05/04 00:56:56;;;;;;;4.09;2.65;;;;;;;;;;362664;148;865995;-59
2021/05/04 00:57:57;;;;;;;4.55;2.54;;;;;;;;;;362618;148;857521;-60
2021/05/04 00:58:59;;;;;;;3.61;2.80;;;;;;;;;;363124;146;857403;-60
2021/05/04 01:00:01;;;;;;;4.31;3.14;;;;;;;;;;362894;148;862687;-60
2021/05/04 01:01:03;;;;;;;4.93;3.15;;;;;;;;;;363416;146;858676;-60
2021/05/04 01:02:04;;;;;;;5.08;2.49;;;;;;;;;;363773;146;859064;-60
2021/05/04 01:14:22;;;;;;;4.77;2.17;;;;;;;5.42;56.79;99623.56;371923;142;881234;-60
2021/05/04 01:15:24;;;;;;;4.42;2.86;;;;;;;5.34;56.71;99623.52;363182;147;859270;-60
2021/05/04 01:16:27;;;;;;;3.49;2.66;;;;;;;5.33;56.85;99621.80;363971;147;865462;-61
2021/05/04 01:17:30;;;;;;;3.92;2.36;;;;;;;5.28;57.14;99622.59;361983;144;858575;-60
2021/05/04 01:18:32;;;;;;;3.74;2.38;;;;;;;5.26;56.97;99617.44;361627;145;864832;-61
2021/05/04 01:19:34;;;;;;;3.42;2.63;;;;;;;5.25;57.00;99623.41;359952;147;859035;-59
2021/05/04 01:20:36;;;;;;;4.84;2.78;;;;;;;5.23;57.06;99615.72;366253;147;865363;-60
2021/05/04 01:21:38;;;;;;;3.72;2.59;;;;;;;5.24;57.22;99621.70;366267;147;859372;-59
2021/05/04 01:22:40;;;;;;;3.79;2.74;;;;;;;5.25;57.29;99616.59;366269;146;858344;-59
2021/05/04 01:23:41;;;;;;;4.16;3.08;;;;;;;5.28;57.19;99623.44;365366;146;864830;-60
2021/05/04 01:24:43;;;;;;;5.91;2.80;;;;;;;5.24;57.21;99622.57;359757;147;864843;-59
2021/05/04 01:25:45;;;;;;;5.61;2.71;;;;;;;5.22;57.35;99618.25;360679;147;864819;-59
2021/05/04 01:26:47;;;;;;;5.91;2.87;;;;;;;5.20;57.31;99613.13;359471;150;865593;-60
2021/05/04 01:27:49;;;;;;;3.88;2.40;;;;;;;5.21;57.36;99621.66;359577;150;857486;-59
2021/05/04 01:28:51;;;;;;;4.09;2.79;;;;;;;5.21;57.45;99626.80;359512;150;857250;-60
2021/05/04 01:29:52;;;;;;;3.44;2.71;;;;;;;5.19;57.39;99620.80;359469;150;865726;-60
2021/05/04 01:30:54;;;;;;;3.61;2.55;;;;;;;5.17;57.48;99620.80;359432;150;868384;-60
2021/05/04 01:31:56;;;;;;;4.79;2.33;;;;;;;5.17;57.48;99620.80;359036;150;857409;-60
2021/05/04 01:33:00;;;;;;;4.01;2.59;;;;;;;5.19;57.54;99615.66;363706;147;857200;-60
2021/05/04 01:34:02;;;;;;;3.74;2.61;;;;;;;5.21;57.50;99622.55;363129;147;865294;-61
2021/05/04 01:35:06;;;;;;;4.73;2.89;;;;;;;5.21;57.43;99622.55;363455;144;865245;-60
2021/05/04 01:36:08;;;;;;;6.79;2.91;;;;;;;5.19;57.67;99624.23;366111;147;858774;-60
2021/05/04 01:37:10;;;;;;;5.61;2.69;;;;;;;5.20;57.53;99627.65;366308;146;859009;-60
2021/05/04 01:38:11;;;;;;;4.86;2.59;;;;;;;5.19;57.68;99626.80;364941;146;857102;-60
2021/05/04 01:39:13;;;;;;;3.42;2.71;;;;;;;5.17;57.78;99627.63;363878;146;864822;-60
2021/05/04 01:40:17;;;;;;;5.67;3.29;;;;;;;5.16;57.72;99633.59;367481;146;865120;-60
2021/05/04 01:41:19;;;;;;;5.31;2.58;;;;;;;5.14;57.82;99625.91;361453;146;860402;-60
2021/05/04 01:42:22;;;;;;;4.84;2.73;;;;;;;5.15;57.88;99635.33;359565;150;857185;-60
2021/05/04 01:54:19;;;;;;;4.67;2.22;;;;;;;5.28;58.15;99620.87;378181;142;881407;-60
2021/05/04 01:55:21;;;;;;;5.53;2.64;;;;;;;5.18;58.02;99632.78;366294;147;857471;-60
2021/05/04 01:56:23;;;;;;;5.40;2.46;;;;;;;5.17;58.17;99633.63;367566;144;858265;-59
2021/05/04 01:57:25;;;;;;;3.19;2.35;;;;;;;5.17;58.25;99635.32;366200;147;859410;-59
2021/05/04 01:58:27;;;;;;;3.26;2.35;;;;;;;5.18;58.21;99637.05;366203;147;857847;-59
2021/05/04 01:59:29;;;;;;;4.98;2.51;;;;;;;5.20;58.31;99636.22;366209;147;857633;-60
2021/05/04 02:00:31;;;;;;;3.68;2.65;;;;;;;5.21;58.31;99637.95;366495;144;860275;-60
2021/05/04 02:01:33;;;;;;;3.23;2.34;;;;;;;5.21;58.17;99634.50;366502;144;857354;-60
2021/05/04 02:02:35;;;;;;;3.89;2.54;;;;;;;5.22;58.21;99642.23;366329;144;864870;-60
2021/05/04 02:03:37;;;;;;;4.75;2.69;;;;;;;5.23;58.25;99637.94;366222;147;864854;-59
2021/05/04 02:04:38;;;;;;;3.65;2.32;;;;;;;5.21;58.55;99642.20;367359;144;859355;-60
2021/05/04 02:05:40;;;;;;;3.31;2.77;;;;;;;5.19;58.29;99636.20;371542;144;865533;-60
2021/05/04 02:06:42;;;;;;;3.85;2.37;;;;;;;5.14;58.58;99640.42;366926;146;866185;-60
2021/05/04 02:07:44;;;;;;;3.71;2.62;;;;;;;5.11;58.56;99638.70;366440;144;857234;-60
2021/05/04 02:08:46;;;;;;;4.14;2.54;;;;;;;5.09;58.62;99648.94;366545;144;857341;-60
2021/05/04 02:09:48;;;;;;;3.22;2.69;;;;;;;5.08;58.68;99639.52;364518;146;864740;-60
2021/05/04 02:10:51;;;;;;;4.80;2.96;;;;;;;5.08;58.68;99639.52;369308;145;864717;-60
2021/05/04 02:11:53;;;;;;;3.62;2.76;;;;;;;5.01;59.20;99642.03;367509;145;858230;-60
2021/05/04 02:12:55;;;;;;;3.33;2.63;;;;;;;5.01;58.99;99634.34;365651;146;865685;-60
2021/05/04 02:13:56;;;;;;;6.68;2.54;;;;;;;5.01;58.99;99634.34;366051;147;865665;-60
2021/05/04 02:14:59;;;;;;;4.44;2.75;;;;;;;5.04;59.05;99640.34;363876;147;865345;-59
2021/05/04 02:16:01;;;;;;;3.03;2.64;;;;;;;5.04;59.05;99640.34;364160;146;866566;-60
2021/05/04 02:17:03;;;;;;;5.90;2.72;;;;;;;5.00;59.14;99630.89;363793;148;865384;-60
2021/05/04 02:18:05;;;;;;;3.97;2.69;;;;;;;5.03;59.28;99628.36;361874;149;859062;-60
2021/05/04 02:19:06;;;;;;;3.85;2.75;;;;;;;5.05;59.18;99630.95;363102;146;866191;-60
2021/05/04 02:20:10;;;;;;;6.57;2.48;;;;;;;5.06;59.18;99632.67;365893;147;857236;-60
2021/05/04 02:21:15;;;;;;;4.86;2.72;;;;;;;5.07;59.08;99640.37;361803;147;857376;-60
2021/05/04 02:22:16;;;;;;;3.79;2.61;;;;;;;5.04;59.18;99640.34;359333;150;857248;-59
2021/05/04 02:23:18;;;;;;;3.27;2.68;;;;;;;4.91;59.59;99639.38;360581;147;865388;-59
2021/05/04 02:24:20;;;;;;;3.85;2.69;;;;;;;4.89;59.71;99635.06;360979;148;857207;-59
2021/05/04 02:25:21;;;;;;;4.29;2.89;;;;;;;4.90;59.61;99636.78;364469;147;864851;-59
2021/05/04 02:26:24;;;;;;;5.33;2.67;;;;;;;4.90;59.74;99636.78;366132;147;864852;-62
2021/05/04 02:27:25;;;;;;;5.20;2.91;;;;;;;4.90;59.60;99637.66;366187;147;858439;-62
2021/05/04 02:28:27;;;;;;;6.19;2.60;;;;;;;4.94;59.69;99639.41;364298;146;864904;-59
2021/05/04 02:29:29;;;;;;;4.68;3.32;;;;;;;4.94;59.62;99641.09;364724;147;864812;-60
2021/05/04 02:30:33;;;;;;;3.65;2.64;;;;;;;4.98;59.64;99640.28;364669;147;864944;-60
2021/05/04 02:31:34;;;;;;;5.27;2.89;;;;;;;4.98;59.53;99645.41;362454;146;865762;-60
2021/05/04 02:32:36;;;;;;;5.89;3.04;;;;;;;5.02;59.57;99646.32;362751;148;859072;-60
2021/05/04 02:33:39;;;;;;;5.59;2.91;;;;;;;5.03;59.46;99651.45;364858;147;864908;-60
2021/05/04 02:34:40;;;;;;;3.87;2.68;;;;;;;5.02;59.47;99644.59;364424;147;858967;-59
2021/05/04 02:35:42;;;;;;;5.70;2.88;;;;;;;5.04;59.63;99644.63;362910;148;857444;-61
2021/05/04 02:36:44;;;;;;;4.18;2.79;;;;;;;5.05;59.52;99644.63;361804;149;866616;-60
2021/05/04 02:37:46;;;;;;;2.88;2.54;;;;;;;5.08;59.48;99646.38;361863;149;857214;-60
2021/05/04 02:38:48;;;;;;;3.80;2.40;;;;;;;5.10;59.42;99647.25;361866;148;864688;-60
2021/05/04 02:39:50;;;;;;;3.06;2.30;;;;;;;5.13;59.30;99644.72;365723;146;865229;-60
2021/05/04 02:40:52;;;;;;;3.68;2.82;;;;;;;5.14;59.23;99650.69;364303;147;858932;-60
2021/05/04 02:41:53;;;;;;;5.48;2.44;;;;;;;5.06;59.69;99645.50;364234;148;859076;-60
2021/05/04 02:42:55;;;;;;;4.77;2.64;;;;;;;5.07;59.58;99644.66;365897;145;866524;-60
2021/05/04 02:43:57;;;;;;;4.15;2.90;;;;;;;5.05;59.68;99649.76;364018;146;864885;-60
2021/05/04 02:44:59;;;;;;;4.80;3.01;;;;;;;4.85;60.42;99656.39;365507;146;864751;-60
2021/05/04 02:46:00;;;;;;;4.11;2.67;;;;;;;4.87;60.29;99649.58;362883;145;864802;-60
2021/05/04 02:47:02;;;;;;;3.31;2.73;;;;;;;4.87;60.27;99657.27;363534;147;864838;-61
2021/05/04 02:48:05;;;;;;;4.23;2.85;;;;;;;4.87;60.30;99654.70;362279;146;858019;-61
2021/05/04 02:49:06;;;;;;;6.45;3.41;;;;;;;4.89;60.33;99647.89;361788;147;857258;-61
2021/05/04 02:50:10;;;;;;;5.64;2.77;;;;;;;4.94;60.26;99659.05;361407;147;857244;-60
2021/05/04 02:51:12;;;;;;;4.32;3.16;;;;;;;4.99;60.21;99653.98;359541;147;857804;-60
2021/05/04 02:52:14;;;;;;;3.52;2.85;;;;;;;5.01;60.02;99593.28;359339;148;857291;-61
2021/05/04 02:53:16;;;;;;;4.11;3.07;;;;;;;5.01;60.02;99593.28;363795;148;859046;-60
2021/05/04 02:54:17;;;;;;;6.21;3.22;;;;;;;5.06;59.95;99663.47;364675;146;865220;-61
2021/05/04 02:55:19;;;;;;;7.84;4.27;;;;;;;;;;364604;147;866552;-61
2021/05/04 02:56:21;;;;;;;4.67;3.21;;;;;;;;;;364628;147;866133;-59
2021/05/04 02:57:23;;;;;;;5.06;3.11;;;;;;;;;;364769;146;857340;-59
2021/05/04 02:58:26;;;;;;;5.06;3.08;;;;;;;;;;365149;147;859216;-59
2021/05/04 02:59:27;;;;;;;3.96;3.39;;;;;;;;;;362929;147;857876;-60
2021/05/04 03:00:31;;;;;;;3.69;3.05;;;;;;;;;;363379;147;857258;-60
2021/05/04 03:01:32;;;;;;;4.54;2.86;;;;;;;;;;362173;147;857420;-60
2021/05/04 03:02:34;;;;;;;4.07;3.16;;;;;;;;;;362464;147;866648;-60
2021/05/04 03:03:36;;;;;;;4.53;2.99;;;;;;;;;;359775;147;866458;-60
2021/05/04 03:04:37;;;;;;;3.78;2.75;;;;;;;;;;362942;147;859416;-60
2021/05/04 03:05:39;;;;;;;4.81;3.11;;;;;;;;;;361232;146;858531;-60
2021/05/04 03:06:42;;;;;;;5.61;3.12;;;;;;;;;;357906;150;860769;-60
2021/05/04 03:07:44;;;;;;;6.06;3.70;;;;;;;;;;359797;147;858294;-60
2021/05/04 03:08:46;;;;;;;5.19;3.46;;;;;;;;;;365037;147;865408;-60
2021/05/04 03:09:47;;;;;;;4.76;3.11;;;;;;;;;;366455;145;858687;-60
2021/05/04 03:10:50;;;;;;;5.17;3.68;;;;;;;;;;371737;145;857514;-60
2021/05/04 03:11:51;;;;;;;4.40;3.17;;;;;;;;;;371771;145;857349;-60
2021/05/04 03:12:53;;;;;;;6.31;3.29;;;;;;;;;;360466;146;857429;-60
2021/05/04 03:13:54;;;;;;;5.80;3.48;;;;;;;;;;363223;146;859149;-60
2021/05/04 03:14:56;;;;;;;7.40;3.44;;;;;;;;;;356096;151;859108;-60
2021/05/04 03:15:58;;;;;;;6.01;3.56;;;;;;;;;;364048;147;865541;-60
2021/05/04 03:16:59;;;;;;;5.48;3.36;;;;;;;;;;363994;147;857448;-59
2021/05/04 03:18:01;;;;;;;5.88;3.35;;;;;;;;;;364031;147;864988;-59
2021/05/04 03:19:03;;;;;;;6.91;3.51;;;;;;;;;;362426;147;865390;-59
2021/05/04 03:20:05;;;;;;;4.72;3.29;;;;;;;;;;361331;149;864965;-60
2021/05/04 03:21:07;;;;;;;4.25;3.01;;;;;;;;;;363804;147;857163;-59
2021/05/04 03:22:08;;;;;;;4.62;3.27;;;;;;;;;;362640;147;858469;-60
2021/05/04 03:23:10;;;;;;;4.47;3.26;;;;;;;;;;364937;147;860369;-62
2021/05/04 03:24:11;;;;;;;7.54;3.29;;;;;;;;;;366024;145;858331;-60
2021/05/04 03:25:13;;;;;;;4.94;2.99;;;;;;;;;;366558;146;857299;-59
2021/05/04 03:26:15;;;;;;;4.38;3.64;;;;;;;;;;362695;146;857405;-60
2021/05/04 03:27:17;;;;;;;5.28;3.73;;;;;;;;;;363512;147;865254;-60
2021/05/04 03:28:19;;;;;;;5.61;3.47;;;;;;;;;;362371;148;857467;-60
2021/05/04 03:29:20;;;;;;;7.77;4.23;;;;;;;;;;364866;147;865137;-60
2021/05/04 03:30:22;;;;;;;10.08;5.97;;;;;;;;;;364660;145;860108;-60
2021/05/04 03:31:24;;;;;;;9.78;5.91;;;;;;;;;;364552;147;858600;-60
2021/05/04 03:32:25;;;;;;;9.12;5.64;;;;;;;;;;363723;147;865031;-60
2021/05/04 03:33:27;;;;;;;10.84;6.98;;;;;;;;;;361312;147;864942;-60
2021/05/04 03:34:29;;;;;;;7.59;5.36;;;;;;;;;;363687;148;864978;-60
2021/05/04 03:35:30;;;;;;;10.54;6.48;;;;;;;;;;363918;148;858470;-60
2021/05/04 03:36:32;;;;;;;8.83;5.85;;;;;;;;;;363935;148;859130;-60
2021/05/04 03:37:34;;;;;;;10.15;5.43;;;;;;;;;;363636;147;859552;-60
2021/05/04 03:38:35;;;;;;;8.90;5.91;;;;;;;;;;363999;147;857459;-60
2021/05/04 03:39:37;;;;;;;7.16;4.03;;;;;;;;;;364571;147;857360;-60
2021/05/04 03:40:39;;;;;;;7.21;4.45;;;;;;;;;;362681;147;857670;-60
2021/05/04 03:41:40;;;;;;;7.83;4.35;;;;;;;;;;364090;147;856895;-60
2021/05/04 03:42:42;;;;;;;5.96;4.24;;;;;;;;;;364978;146;857536;-60
2021/05/04 03:53:53;;;;;;;9.59;3.62;;;;;;;5.99;59.39;99684.78;374239;142;881282;-61
2021/05/04 03:54:55;;;;;;;5.64;3.40;;;;;;;5.90;59.58;99679.59;364119;145;860218;-61
2021/05/04 03:55:57;;;;;;;4.73;3.61;;;;;;;5.94;59.64;99684.73;364697;147;857258;-61
2021/05/04 03:56:59;;;;;;;4.99;3.71;;;;;;;5.97;59.68;99682.19;365981;144;864862;-61
2021/05/04 03:58:01;;;;;;;3.92;3.01;;;;;;;6.04;59.50;99687.40;369734;145;858831;-61
2021/05/04 03:59:03;;;;;;;3.94;2.63;;;;;;;6.09;59.22;99678.88;365889;145;865753;-61
2021/05/04 04:00:06;;;;;;;5.90;3.92;;;;;;;6.11;59.02;99684.02;368581;145;864979;-61
2021/05/04 04:01:08;;;;;;;6.59;3.72;;;;;;;6.14;59.08;99682.34;362378;145;859501;-61
2021/05/04 04:02:10;;;;;;;4.95;3.82;;;;;;;6.19;59.01;99682.34;359392;150;857224;-59
2021/05/04 04:03:12;;;;;;;6.22;3.60;;;;;;;6.16;58.99;99682.33;360718;148;858178;-60
2021/05/04 04:04:13;;;;;;;5.76;3.54;;;;;;;6.09;59.26;99683.15;363307;145;865692;-60
2021/05/04 04:05:15;;;;;;;6.40;4.15;;;;;;;6.01;59.72;99687.38;370304;145;866572;-60
2021/05/04 04:06:18;;;;;;;4.91;3.21;;;;;;;6.01;59.79;99683.12;370229;145;864938;-59
2021/05/04 04:07:19;;;;;;;5.40;3.47;;;;;;;6.04;59.73;99677.12;369633;145;857200;-59
2021/05/04 04:08:21;;;;;;;5.23;3.85;;;;;;;6.07;59.28;99684.84;366067;147;857074;-59
2021/05/04 04:09:23;;;;;;;7.19;3.86;;;;;;;6.06;59.33;99681.44;365768;145;857103;-59
2021/05/04 04:10:26;;;;;;;4.60;3.19;;;;;;;6.13;59.36;99675.48;364073;146;858965;-60
2021/05/04 04:11:27;;;;;;;5.46;4.01;;;;;;;6.20;59.00;99673.78;364943;145;857491;-59
2021/05/04 04:12:29;;;;;;;4.65;3.25;;;;;;;6.28;58.85;99681.55;354128;150;858227;-60
2021/05/04 04:13:33;;;;;;;4.49;3.58;;;;;;;6.35;58.75;99675.59;356219;147;866792;-59
2021/05/04 04:14:35;;;;;;;6.91;3.41;;;;;;;6.38;58.52;99677.33;354395;150;865925;-60
2021/05/04 04:15:36;;;;;;;6.09;3.88;;;;;;;6.36;58.52;99679.01;355412;150;864914;-59
2021/05/04 04:16:38;;;;;;;4.50;3.71;;;;;;;6.34;58.47;99691.00;357610;150;864863;-60
2021/05/04 04:17:40;;;;;;;3.29;2.61;;;;;;;6.40;58.45;99683.34;354275;148;857289;-60
2021/05/04 04:18:42;;;;;;;3.76;2.95;;;;;;;6.42;58.40;99690.20;354711;147;864838;-60
2021/05/04 04:19:44;;;;;;;4.77;3.60;;;;;;;6.49;58.14;99685.08;355970;148;857422;-60
2021/05/04 04:20:46;;;;;;;5.74;3.73;;;;;;;6.39;58.64;99682.47;353732;148;864774;-60
2021/05/04 04:21:49;;;;;;;6.36;3.51;;;;;;;6.46;58.28;99688.52;356410;150;860149;-60
2021/05/04 04:22:51;;;;;;;6.62;3.51;;;;;;;6.51;58.46;99686.83;353845;149;860162;-60
2021/05/04 04:23:53;;;;;;;6.38;2.97;;;;;;;6.60;58.34;99698.00;353887;149;857203;-60
2021/05/04 04:24:54;;;;;;;5.00;3.47;;;;;;;6.63;58.09;99693.72;353585;150;857457;-60
2021/05/04 04:25:56;;;;;;;4.71;2.71;;;;;;;6.63;58.09;99693.72;354135;148;864903;-59
2021/05/04 04:26:58;;;;;;;5.23;3.42;;;;;;;6.75;57.93;99680.05;355045;148;859040;-60
2021/05/04 04:28:00;;;;;;;7.09;4.08;;;;;;;6.78;57.62;99682.63;356923;147;857316;-60
2021/05/04 04:29:02;;;;;;;6.39;3.68;;;;;;;6.84;57.64;99685.22;354817;149;864878;-60
2021/05/04 04:30:05;;;;;;;5.93;3.55;;;;;;;6.91;57.75;99690.39;352199;151;864790;-60
2021/05/04 04:31:07;;;;;;;6.46;3.01;;;;;;;6.96;57.30;99691.27;353920;147;858580;-60
2021/05/04 04:32:09;;;;;;;5.45;4.02;;;;;;;6.95;57.42;99690.42;353915;147;857402;-60
2021/05/04 04:33:10;;;;;;;5.96;3.88;;;;;;;6.99;57.07;99686.13;353156;150;864921;-62
2021/05/04 04:34:12;;;;;;;5.81;3.91;;;;;;;6.97;56.93;99686.13;354806;150;865034;-62
2021/05/04 04:35:14;;;;;;;4.32;3.28;;;;;;;6.98;57.07;99697.27;352868;149;864993;-62
2021/05/04 04:36:16;;;;;;;4.85;3.55;;;;;;;6.84;57.36;99697.22;353140;151;865014;-62
2021/05/04 04:37:18;;;;;;;6.14;4.01;;;;;;;6.93;57.30;99698.98;352363;149;860729;-60
2021/05/04 04:38:20;;;;;;;11.64;4.27;;;;;;;6.98;57.36;99703.30;354146;147;865519;-60
2021/05/04 04:39:22;;;;;;;4.03;2.91;;;;;;;6.99;56.89;99702.44;354353;150;866036;-59
2021/05/04 04:40:24;;;;;;;5.48;3.48;;;;;;;6.82;57.12;99697.23;354146;147;858982;-59
2021/05/04 04:41:26;;;;;;;6.21;3.91;;;;;;;6.75;57.68;99700.64;354004;151;857507;-60
2021/05/04 04:42:28;;;;;;;8.95;3.76;;;;;;;6.85;57.39;99701.52;353787;147;857339;-60
2021/05/04 04:43:30;;;;;;;3.54;2.51;;;;;;;6.91;57.44;99698.98;355092;149;864919;-60
2021/05/04 04:44:31;;;;;;;3.88;2.82;;;;;;;6.98;57.12;99700.72;353496;150;864868;-60
2021/05/04 04:45:33;;;;;;;5.20;3.85;;;;;;;7.04;57.14;99702.44;353441;150;864878;-59
2021/05/04 04:46:42;;;;;;;3.88;2.99;;;;;;;7.05;57.37;99701.58;352590;149;864951;-60
2021/05/04 04:47:44;;;;;;;5.38;3.18;;;;;;;7.03;57.21;99695.56;352141;153;857254;-60
2021/05/04 04:48:46;;;;;;;3.67;3.19;;;;;;;7.06;57.21;99703.30;354510;149;857284;-60
2021/05/04 04:49:47;;;;;;;6.39;4.05;;;;;;;7.12;57.32;99698.16;353567;150;857364;-60
2021/05/04 04:50:50;;;;;;;7.47;4.01;;;;;;;7.12;56.82;99699.89;355451;150;864893;-60
2021/05/04 04:51:52;;;;;;;4.96;3.76;;;;;;;7.10;57.53;99711.91;353252;149;857273;-60
2021/05/04 04:52:54;;;;;;;6.33;4.34;;;;;;;6.94;56.61;99705.84;355113;149;864837;-61
2021/05/04 04:53:56;;;;;;;5.55;3.70;;;;;;;7.02;56.89;99709.30;352005;150;865117;-60
2021/05/04 04:54:57;;;;;;;5.43;3.64;;;;;;;7.04;56.85;99709.31;354133;147;857203;-60
2021/05/04 04:55:59;;;;;;;6.04;3.82;;;;;;;6.67;57.78;99708.31;356165;150;864845;-60
2021/05/04 04:57:01;;;;;;;6.15;2.53;;;;;;;6.82;57.70;99701.50;352861;150;864797;-61
2021/05/04 04:58:03;;;;;;;6.48;3.86;;;;;;;6.93;57.38;99714.42;352257;149;857310;-60
2021/05/04 04:59:05;;;;;;;4.27;3.16;;;;;;;6.95;57.81;99710.13;354275;147;864715;-61
2021/05/04 05:00:08;;;;;;;7.48;3.93;;;;;;;6.86;57.82;99726.39;354056;148;865059;-61
2021/05/04 05:01:10;;;;;;;6.71;4.08;;;;;;;6.75;57.82;99705.78;352605;150;857369;-61
2021/05/04 05:02:12;;;;;;;6.94;4.08;;;;;;;6.90;57.79;99715.28;356579;150;857571;-60
2021/05/04 05:03:13;;;;;;;8.41;3.76;;;;;;;6.95;58.14;99717.86;354495;149;865012;-61
2021/05/04 05:04:15;;;;;;;7.17;4.19;;;;;;;7.00;57.46;99719.61;355716;151;865004;-61
2021/05/04 05:05:17;;;;;;;6.74;3.69;;;;;;;7.12;57.58;99717.91;353483;150;865024;-61
2021/05/04 05:06:20;;;;;;;5.24;3.66;;;;;;;7.20;56.71;99716.22;353643;149;865005;-60
2021/05/04 05:07:22;;;;;;;5.87;3.72;;;;;;;7.31;57.05;99719.67;352453;151;857214;-61
2021/05/04 05:08:24;;;;;;;8.19;4.56;;;;;;;7.40;56.86;99717.97;354715;150;857315;-60
2021/05/04 05:09:25;;;;;;;6.93;3.59;;;;;;;7.50;57.22;99718.85;353499;149;864916;-62
2021/05/04 05:10:28;;;;;;;7.25;4.25;;;;;;;7.36;56.72;99722.23;354264;150;864897;-61
2021/05/04 05:11:30;;;;;;;5.65;3.48;;;;;;;7.49;56.62;99717.98;352131;147;866073;-61
2021/05/04 05:12:31;;;;;;;6.29;3.69;;;;;;;7.60;56.64;99718.84;353996;149;865403;-60
2021/05/04 05:13:33;;;;;;;9.74;4.78;;;;;;;7.69;56.00;99724.85;352591;150;865732;-59
2021/05/04 05:14:36;;;;;;;6.70;3.95;;;;;;;7.75;55.82;99735.16;353312;150;864547;-60
2021/05/04 05:15:40;;;;;;;6.75;4.29;;;;;;;7.75;55.82;99735.16;355602;150;856795;-60
2021/05/04 05:16:43;;;;;;;5.28;3.77;;;;;;;7.86;55.46;99727.44;354424;150;857681;-60
2021/05/04 05:17:45;;;;;;;7.03;3.71;;;;;;;7.90;55.29;99724.84;353256;149;857439;-61
2021/05/04 05:18:47;;;;;;;7.53;3.91;;;;;;;8.00;55.24;99727.45;354316;150;858545;-61
2021/05/04 05:19:48;;;;;;;6.19;3.95;;;;;;;8.07;55.42;99734.31;352502;150;865967;-61
2021/05/04 05:20:52;;;;;;;7.69;4.35;;;;;;;8.00;54.29;99723.14;356726;147;857245;-60
2021/05/04 05:21:54;;;;;;;6.11;3.90;;;;;;;7.75;55.68;99725.73;355074;150;865919;-60
2021/05/04 05:22:56;;;;;;;5.84;3.87;;;;;;;7.98;55.38;99727.44;355133;149;860554;-60
2021/05/04 05:23:58;;;;;;;6.56;3.86;;;;;;;7.99;55.40;99721.42;356319;150;866065;-60
2021/05/04 05:25:00;;;;;;;4.63;4.04;;;;;;;8.06;54.87;99719.70;354136;147;865172;-60
2021/05/04 05:26:02;;;;;;;7.89;3.92;;;;;;;8.16;54.65;99728.27;353827;149;857407;-60
2021/05/04 05:27:05;;;;;;;4.16;2.52;;;;;;;8.01;54.53;99727.43;353042;149;857810;-60
2021/05/04 05:28:06;;;;;;;5.57;3.28;;;;;;;8.01;54.45;99734.33;355522;147;866605;-60
2021/05/04 05:29:08;;;;;;;5.59;3.87;;;;;;;8.02;54.36;99734.30;355877;147;864955;-60
2021/05/04 05:30:12;;;;;;;5.49;3.39;;;;;;;7.89;54.88;99699.09;355129;150;865001;-58
2021/05/04 05:31:14;;;;;;;5.96;3.68;;;;;;;7.89;54.88;99699.09;353672;150;858198;-59
2021/05/04 05:32:15;;;;;;;5.43;3.56;;;;;;;7.80;55.02;99738.59;353616;150;864854;-59
2021/05/04 05:33:17;;;;;;;4.79;3.42;;;;;;;7.79;54.90;99730.88;353469;150;859068;-59
2021/05/04 05:34:19;;;;;;;5.08;3.91;;;;;;;7.90;55.63;99729.16;352946;150;865876;-62
2021/05/04 05:35:21;;;;;;;5.06;3.73;;;;;;;8.04;55.12;99714.53;352634;147;864809;-59
2021/05/04 05:36:24;;;;;;;4.26;2.97;;;;;;;7.83;54.95;99733.45;355416;147;864801;-60
2021/05/04 05:37:27;;;;;;;5.74;3.65;;;;;;;7.56;55.32;99730.00;354031;147;859421;-60
2021/05/04 05:38:28;;;;;;;5.33;3.30;;;;;;;7.65;54.84;99736.89;357329;150;856219;-60
2021/05/04 05:39:30;;;;;;;4.83;3.31;;;;;;;7.67;55.16;99719.72;354215;150;865268;-60
2021/05/04 05:40:34;;;;;;;6.23;3.64;;;;;;;7.73;55.25;99711.11;355384;149;857462;-60
2021/05/04 05:41:36;;;;;;;6.29;3.51;;;;;;;7.74;54.93;99728.29;352596;150;859936;-60
2021/05/04 05:42:37;;;;;;;5.54;3.05;;;;;;;7.85;54.68;99733.45;353052;149;856584;-60
2021/05/04 05:43:39;;;;;;;4.66;3.42;;;;;;;7.88;54.17;99734.30;352712;149;864197;-60
2021/05/04 05:44:41;;;;;;;3.96;2.58;;;;;;;7.71;54.86;99724.02;352295;153;863811;-60
2021/05/04 05:45:43;;;;;;;6.67;3.64;;;;;;;7.83;55.45;99712.83;353515;150;863780;-60
2021/05/04 05:46:46;;;;;;;3.47;2.52;;;;;;;7.93;54.99;99720.55;353237;150;865063;-61
2021/05/04 05:47:48;;;;;;;6.59;3.64;;;;;;;7.97;54.27;99707.67;357403;150;858715;-60
2021/05/04 05:48:51;;;;;;;5.33;3.03;;;;;;;7.89;54.88;99723.12;355157;149;858452;-60
2021/05/04 05:49:52;;;;;;;3.14;2.35;;;;;;;7.93;54.54;99717.97;354811;150;864786;-60
2021/05/04 05:50:54;;;;;;;5.10;3.11;;;;;;;8.02;55.08;99723.99;356370;150;865315;-60
2021/05/04 05:51:56;;;;;;;3.25;2.77;;;;;;;7.83;54.80;99722.29;352159;149;857598;-60
2021/05/04 05:52:58;;;;;;;5.53;3.64;;;;;;;7.83;54.80;99722.29;353948;150;865044;-60
2021/05/04 05:53:59;;;;;;;5.08;3.36;;;;;;;8.13;54.74;99721.41;353814;147;858251;-61
2021/05/04 05:55:01;;;;;;;4.76;3.17;;;;;;;8.26;54.43;99717.08;350174;151;866454;-60
2021/05/04 05:56:04;;;;;;;3.15;2.84;;;;;;;;;;350019;151;866613;-60
2021/05/04 05:57:05;;;;;;;4.07;2.43;;;;;;;;;;349681;150;857216;-61
2021/05/04 05:58:07;;;;;;;7.41;2.94;;;;;;;;;;349525;151;860606;-61
2021/05/04 05:59:09;;;;;;;5.50;3.81;;;;;;;;;;351138;151;867232;-59
2021/05/04 06:00:14;;;;;;;5.51;3.41;;;;;;;;;;349425;151;859089;-60
2021/05/04 06:01:15;;;;;;;4.82;3.51;;;;;;;;;;349261;154;865581;-60
2021/05/04 06:02:17;;;;;;;3.91;2.27;;;;;;;;;;350209;151;857654;-60
2021/05/04 06:03:19;;;;;;;5.76;3.39;;;;;;;;;;349915;151;859694;-60
2021/05/04 06:04:20;;;;;;;6.02;3.56;;;;;;;;;;349600;153;859511;-60